sensor_id;sensor_type;location;lat;lon;timestamp;P1;durP1;ratioP1;P2;durP2;ratioP2
78207;SDS011;67481;50.244;18.288;2023-05-07T00:01:22;28.23;;;13.48;;
78207;SDS011;67481;50.244;18.288;2023-05-07T00:04:07;23.60;;;12.13;;
78207;SDS011;67481;50.244;18.288;2023-05-07T00:06:53;30.27;;;15.20;;
78207;SDS011;67481;50.244;18.288;2023-05-07T00:09:38;25.08;;;12.98;;
78207;SDS011;67481;50.244;18.288;2023-05-07T00:12:25;30.63;;;15.27;;
78207;SDS011;67481;50.244;18.288;2023-05-07T00:15:11;30.10;;;14.95;;
78207;SDS011;67481;50.244;18.288;2023-05-07T00:17:57;32.55;;;15.30;;
78207;SDS011;67481;50.244;18.288;2023-05-07T00:20:44;25.88;;;13.63;;
78207;SDS011;67481;50.244;18.288;2023-05-07T00:23:30;27.50;;;13.88;;
78207;SDS011;67481;50.244;18.288;2023-05-07T00:26:15;33.38;;;15.95;;
78207;SDS011;67481;50.244;18.288;2023-05-07T00:29:03;31.05;;;15.27;;
78207;SDS011;67481;50.244;18.288;2023-05-07T00:31:49;32.28;;;15.02;;
78207;SDS011;67481;50.244;18.288;2023-05-07T00:34:36;39.13;;;16.33;;
78207;SDS011;67481;50.244;18.288;2023-05-07T00:37:22;40.38;;;16.70;;
78207;SDS011;67481;50.244;18.288;2023-05-07T00:40:07;35.83;;;15.10;;
78207;SDS011;67481;50.244;18.288;2023-05-07T00:42:54;32.00;;;14.88;;
78207;SDS011;67481;50.244;18.288;2023-05-07T00:45:43;22.40;;;11.23;;
78207;SDS011;67481;50.244;18.288;2023-05-07T00:48:29;28.83;;;14.23;;
78207;SDS011;67481;50.244;18.288;2023-05-07T00:51:15;20.95;;;10.88;;
78207;SDS011;67481;50.244;18.288;2023-05-07T00:54:02;20.77;;;10.23;;
78207;SDS011;67481;50.244;18.288;2023-05-07T00:56:48;29.45;;;14.98;;
78207;SDS011;67481;50.244;18.288;2023-05-07T00:59:33;30.23;;;15.55;;
78207;SDS011;67481;50.244;18.288;2023-05-07T01:02:20;29.17;;;15.88;;
78207;SDS011;67481;50.244;18.288;2023-05-07T01:05:07;29.17;;;15.32;;
78207;SDS011;67481;50.244;18.288;2023-05-07T01:07:55;31.42;;;15.30;;
78207;SDS011;67481;50.244;18.288;2023-05-07T01:10:41;31.92;;;16.77;;
78207;SDS011;67481;50.244;18.288;2023-05-07T01:13:28;28.83;;;16.38;;
78207;SDS011;67481;50.244;18.288;2023-05-07T01:16:15;30.65;;;16.08;;
78207;SDS011;67481;50.244;18.288;2023-05-07T01:19:00;33.15;;;16.30;;
78207;SDS011;67481;50.244;18.288;2023-05-07T01:21:47;30.52;;;16.65;;
78207;SDS011;67481;50.244;18.288;2023-05-07T01:24:36;33.20;;;17.25;;
78207;SDS011;67481;50.244;18.288;2023-05-07T01:27:23;37.08;;;16.58;;
78207;SDS011;67481;50.244;18.288;2023-05-07T01:30:10;32.75;;;16.48;;
78207;SDS011;67481;50.244;18.288;2023-05-07T01:35:51;31.42;;;15.05;;
78207;SDS011;67481;50.244;18.288;2023-05-07T01:38:39;21.10;;;10.52;;
78207;SDS011;67481;50.244;18.288;2023-05-07T01:41:25;28.73;;;14.13;;
78207;SDS011;67481;50.244;18.288;2023-05-07T01:44:11;31.88;;;15.68;;
78207;SDS011;67481;50.244;18.288;2023-05-07T01:46:57;32.10;;;15.48;;
78207;SDS011;67481;50.244;18.288;2023-05-07T01:49:43;25.40;;;12.38;;
78207;SDS011;67481;50.244;18.288;2023-05-07T01:52:29;29.40;;;14.10;;
78207;SDS011;67481;50.244;18.288;2023-05-07T01:55:15;25.63;;;13.02;;
78207;SDS011;67481;50.244;18.288;2023-05-07T01:58:00;23.60;;;12.70;;
78207;SDS011;67481;50.244;18.288;2023-05-07T02:00:46;25.42;;;12.57;;
78207;SDS011;67481;50.244;18.288;2023-05-07T02:03:31;23.75;;;11.48;;
78207;SDS011;67481;50.244;18.288;2023-05-07T02:06:25;21.77;;;10.30;;
78207;SDS011;67481;50.244;18.288;2023-05-07T02:09:16;20.67;;;9.82;;
78207;SDS011;67481;50.244;18.288;2023-05-07T02:12:05;20.52;;;9.85;;
78207;SDS011;67481;50.244;18.288;2023-05-07T02:14:51;18.75;;;9.27;;
78207;SDS011;67481;50.244;18.288;2023-05-07T02:17:57;15.95;;;7.63;;
78207;SDS011;67481;50.244;18.288;2023-05-07T02:20:47;20.35;;;9.65;;
78207;SDS011;67481;50.244;18.288;2023-05-07T02:23:33;18.83;;;7.95;;
78207;SDS011;67481;50.244;18.288;2023-05-07T02:26:19;19.65;;;8.95;;
78207;SDS011;67481;50.244;18.288;2023-05-07T02:29:07;20.48;;;9.77;;
78207;SDS011;67481;50.244;18.288;2023-05-07T02:31:54;19.45;;;9.38;;
78207;SDS011;67481;50.244;18.288;2023-05-07T02:34:40;21.63;;;10.10;;
78207;SDS011;67481;50.244;18.288;2023-05-07T02:37:26;24.13;;;9.80;;
78207;SDS011;67481;50.244;18.288;2023-05-07T02:40:11;16.77;;;7.43;;
78207;SDS011;67481;50.244;18.288;2023-05-07T02:42:58;17.85;;;8.48;;
78207;SDS011;67481;50.244;18.288;2023-05-07T02:45:44;18.50;;;8.57;;
78207;SDS011;67481;50.244;18.288;2023-05-07T02:48:30;17.80;;;8.75;;
78207;SDS011;67481;50.244;18.288;2023-05-07T02:51:20;17.27;;;7.80;;
78207;SDS011;67481;50.244;18.288;2023-05-07T02:54:11;17.48;;;7.65;;
78207;SDS011;67481;50.244;18.288;2023-05-07T02:56:57;19.50;;;9.20;;
78207;SDS011;67481;50.244;18.288;2023-05-07T02:59:42;17.05;;;8.60;;
78207;SDS011;67481;50.244;18.288;2023-05-07T03:02:30;19.05;;;8.57;;
78207;SDS011;67481;50.244;18.288;2023-05-07T03:05:16;18.42;;;8.98;;
78207;SDS011;67481;50.244;18.288;2023-05-07T03:08:02;18.23;;;7.47;;
78207;SDS011;67481;50.244;18.288;2023-05-07T03:10:49;15.30;;;7.28;;
78207;SDS011;67481;50.244;18.288;2023-05-07T03:13:35;16.90;;;8.05;;
78207;SDS011;67481;50.244;18.288;2023-05-07T03:16:21;20.17;;;9.13;;
78207;SDS011;67481;50.244;18.288;2023-05-07T03:19:06;16.17;;;7.22;;
78207;SDS011;67481;50.244;18.288;2023-05-07T03:21:52;18.13;;;8.85;;
78207;SDS011;67481;50.244;18.288;2023-05-07T03:24:37;21.48;;;9.40;;
78207;SDS011;67481;50.244;18.288;2023-05-07T03:27:23;23.35;;;9.98;;
78207;SDS011;67481;50.244;18.288;2023-05-07T03:32:57;19.52;;;8.90;;
78207;SDS011;67481;50.244;18.288;2023-05-07T03:35:43;18.00;;;8.38;;
78207;SDS011;67481;50.244;18.288;2023-05-07T03:38:31;19.80;;;8.27;;
78207;SDS011;67481;50.244;18.288;2023-05-07T03:41:17;17.98;;;8.18;;
78207;SDS011;67481;50.244;18.288;2023-05-07T03:44:03;18.92;;;7.78;;
78207;SDS011;67481;50.244;18.288;2023-05-07T03:46:49;17.30;;;9.27;;
78207;SDS011;67481;50.244;18.288;2023-05-07T03:49:35;23.83;;;9.32;;
78207;SDS011;67481;50.244;18.288;2023-05-07T03:52:21;14.43;;;6.18;;
78207;SDS011;67481;50.244;18.288;2023-05-07T03:55:13;13.60;;;6.85;;
78207;SDS011;67481;50.244;18.288;2023-05-07T03:58:05;14.35;;;6.63;;
78207;SDS011;67481;50.244;18.288;2023-05-07T04:00:51;14.80;;;6.63;;
78207;SDS011;67481;50.244;18.288;2023-05-07T04:03:42;14.02;;;6.60;;
78207;SDS011;67481;50.244;18.288;2023-05-07T04:06:28;14.23;;;5.95;;
78207;SDS011;67481;50.244;18.288;2023-05-07T04:09:14;12.88;;;6.15;;
78207;SDS011;67481;50.244;18.288;2023-05-07T04:11:59;11.68;;;5.55;;
78207;SDS011;67481;50.244;18.288;2023-05-07T04:14:47;10.30;;;5.15;;
78207;SDS011;67481;50.244;18.288;2023-05-07T04:17:33;12.68;;;6.03;;
78207;SDS011;67481;50.244;18.288;2023-05-07T04:20:19;15.50;;;6.53;;
78207;SDS011;67481;50.244;18.288;2023-05-07T04:23:11;13.82;;;5.85;;
78207;SDS011;67481;50.244;18.288;2023-05-07T04:25:58;12.57;;;5.60;;
78207;SDS011;67481;50.244;18.288;2023-05-07T04:28:52;13.55;;;4.97;;
78207;SDS011;67481;50.244;18.288;2023-05-07T04:31:37;11.02;;;5.15;;
78207;SDS011;67481;50.244;18.288;2023-05-07T04:34:23;11.82;;;4.90;;
78207;SDS011;67481;50.244;18.288;2023-05-07T04:37:09;10.88;;;4.95;;
78207;SDS011;67481;50.244;18.288;2023-05-07T04:39:55;11.57;;;5.32;;
78207;SDS011;67481;50.244;18.288;2023-05-07T04:42:41;10.82;;;5.72;;
78207;SDS011;67481;50.244;18.288;2023-05-07T04:45:28;11.57;;;5.22;;
78207;SDS011;67481;50.244;18.288;2023-05-07T04:48:13;10.63;;;4.55;;
78207;SDS011;67481;50.244;18.288;2023-05-07T04:53:48;12.40;;;4.95;;
78207;SDS011;67481;50.244;18.288;2023-05-07T04:56:34;12.35;;;5.53;;
78207;SDS011;67481;50.244;18.288;2023-05-07T04:59:20;12.38;;;6.05;;
78207;SDS011;67481;50.244;18.288;2023-05-07T05:02:07;12.18;;;6.20;;
78207;SDS011;67481;50.244;18.288;2023-05-07T05:04:53;11.88;;;4.57;;
78207;SDS011;67481;50.244;18.288;2023-05-07T05:10:27;11.63;;;5.60;;
78207;SDS011;67481;50.244;18.288;2023-05-07T05:13:14;12.68;;;5.43;;
78207;SDS011;67481;50.244;18.288;2023-05-07T05:16:00;13.40;;;5.20;;
78207;SDS011;67481;50.244;18.288;2023-05-07T05:18:49;11.05;;;4.60;;
78207;SDS011;67481;50.244;18.288;2023-05-07T05:21:37;10.15;;;4.57;;
78207;SDS011;67481;50.244;18.288;2023-05-07T05:24:26;12.02;;;4.85;;
78207;SDS011;67481;50.244;18.288;2023-05-07T05:27:12;14.55;;;6.35;;
78207;SDS011;67481;50.244;18.288;2023-05-07T05:29:58;13.60;;;5.00;;
78207;SDS011;67481;50.244;18.288;2023-05-07T05:32:45;11.10;;;4.97;;
78207;SDS011;67481;50.244;18.288;2023-05-07T05:35:31;12.25;;;5.30;;
78207;SDS011;67481;50.244;18.288;2023-05-07T05:38:21;11.30;;;5.03;;
78207;SDS011;67481;50.244;18.288;2023-05-07T05:41:07;11.15;;;5.07;;
78207;SDS011;67481;50.244;18.288;2023-05-07T05:43:53;12.93;;;4.68;;
78207;SDS011;67481;50.244;18.288;2023-05-07T05:46:39;9.82;;;4.75;;
78207;SDS011;67481;50.244;18.288;2023-05-07T05:49:26;13.10;;;5.05;;
78207;SDS011;67481;50.244;18.288;2023-05-07T05:52:11;10.10;;;4.20;;
78207;SDS011;67481;50.244;18.288;2023-05-07T05:55:00;8.07;;;3.75;;
78207;SDS011;67481;50.244;18.288;2023-05-07T05:57:46;8.65;;;4.20;;
78207;SDS011;67481;50.244;18.288;2023-05-07T06:00:33;10.52;;;4.28;;
78207;SDS011;67481;50.244;18.288;2023-05-07T06:03:22;8.48;;;3.85;;
78207;SDS011;67481;50.244;18.288;2023-05-07T06:06:08;10.32;;;4.35;;
78207;SDS011;67481;50.244;18.288;2023-05-07T06:08:54;10.52;;;4.30;;
78207;SDS011;67481;50.244;18.288;2023-05-07T06:11:47;10.73;;;4.22;;
78207;SDS011;67481;50.244;18.288;2023-05-07T06:14:34;6.85;;;2.90;;
78207;SDS011;67481;50.244;18.288;2023-05-07T06:17:20;8.55;;;4.57;;
78207;SDS011;67481;50.244;18.288;2023-05-07T06:22:56;12.32;;;4.07;;
78207;SDS011;67481;50.244;18.288;2023-05-07T06:25:49;9.55;;;3.95;;
78207;SDS011;67481;50.244;18.288;2023-05-07T06:28:38;11.02;;;3.80;;
78207;SDS011;67481;50.244;18.288;2023-05-07T06:31:29;8.35;;;4.22;;
78207;SDS011;67481;50.244;18.288;2023-05-07T06:34:20;6.63;;;2.80;;
78207;SDS011;67481;50.244;18.288;2023-05-07T06:37:07;8.38;;;3.65;;
78207;SDS011;67481;50.244;18.288;2023-05-07T06:40:12;9.68;;;4.22;;
78207;SDS011;67481;50.244;18.288;2023-05-07T06:43:00;9.40;;;3.40;;
78207;SDS011;67481;50.244;18.288;2023-05-07T06:46:07;7.95;;;3.30;;
78207;SDS011;67481;50.244;18.288;2023-05-07T06:48:53;8.98;;;3.65;;
78207;SDS011;67481;50.244;18.288;2023-05-07T06:51:41;9.43;;;3.60;;
78207;SDS011;67481;50.244;18.288;2023-05-07T06:54:26;7.57;;;3.50;;
78207;SDS011;67481;50.244;18.288;2023-05-07T06:57:13;5.95;;;2.55;;
78207;SDS011;67481;50.244;18.288;2023-05-07T06:59:59;7.65;;;3.50;;
78207;SDS011;67481;50.244;18.288;2023-05-07T07:02:49;6.40;;;2.40;;
78207;SDS011;67481;50.244;18.288;2023-05-07T07:05:40;7.07;;;2.72;;
78207;SDS011;67481;50.244;18.288;2023-05-07T07:08:27;5.88;;;2.17;;
78207;SDS011;67481;50.244;18.288;2023-05-07T07:11:13;6.57;;;2.40;;
78207;SDS011;67481;50.244;18.288;2023-05-07T07:13:59;6.18;;;2.47;;
78207;SDS011;67481;50.244;18.288;2023-05-07T07:16:48;6.38;;;2.60;;
78207;SDS011;67481;50.244;18.288;2023-05-07T07:19:36;8.48;;;3.05;;
78207;SDS011;67481;50.244;18.288;2023-05-07T07:22:22;5.97;;;2.42;;
78207;SDS011;67481;50.244;18.288;2023-05-07T07:25:09;6.07;;;2.17;;
78207;SDS011;67481;50.244;18.288;2023-05-07T07:27:57;5.57;;;2.33;;
78207;SDS011;67481;50.244;18.288;2023-05-07T07:30:44;6.78;;;2.70;;
78207;SDS011;67481;50.244;18.288;2023-05-07T07:33:31;5.60;;;2.03;;
78207;SDS011;67481;50.244;18.288;2023-05-07T07:36:17;5.18;;;2.22;;
78207;SDS011;67481;50.244;18.288;2023-05-07T07:39:02;5.28;;;1.85;;
78207;SDS011;67481;50.244;18.288;2023-05-07T07:44:37;6.00;;;2.35;;
78207;SDS011;67481;50.244;18.288;2023-05-07T07:47:27;5.43;;;2.25;;
78207;SDS011;67481;50.244;18.288;2023-05-07T07:50:13;5.40;;;2.17;;
78207;SDS011;67481;50.244;18.288;2023-05-07T07:53:10;6.18;;;1.85;;
78207;SDS011;67481;50.244;18.288;2023-05-07T07:55:57;5.03;;;1.98;;
78207;SDS011;67481;50.244;18.288;2023-05-07T07:58:47;6.32;;;2.10;;
78207;SDS011;67481;50.244;18.288;2023-05-07T08:01:33;4.93;;;2.10;;
78207;SDS011;67481;50.244;18.288;2023-05-07T08:04:19;5.43;;;2.13;;
78207;SDS011;67481;50.244;18.288;2023-05-07T08:07:06;4.18;;;1.90;;
78207;SDS011;67481;50.244;18.288;2023-05-07T08:09:54;7.13;;;2.03;;
78207;SDS011;67481;50.244;18.288;2023-05-07T08:12:42;5.40;;;1.75;;
78207;SDS011;67481;50.244;18.288;2023-05-07T08:15:28;5.32;;;1.77;;
78207;SDS011;67481;50.244;18.288;2023-05-07T08:18:14;4.70;;;2.22;;
78207;SDS011;67481;50.244;18.288;2023-05-07T08:21:02;6.05;;;2.00;;
78207;SDS011;67481;50.244;18.288;2023-05-07T08:23:49;6.32;;;2.13;;
78207;SDS011;67481;50.244;18.288;2023-05-07T08:26:35;5.82;;;2.30;;
78207;SDS011;67481;50.244;18.288;2023-05-07T08:29:25;5.30;;;2.22;;
78207;SDS011;67481;50.244;18.288;2023-05-07T08:32:11;3.95;;;1.40;;
78207;SDS011;67481;50.244;18.288;2023-05-07T08:34:56;5.88;;;2.22;;
78207;SDS011;67481;50.244;18.288;2023-05-07T08:37:42;4.53;;;1.80;;
78207;SDS011;67481;50.244;18.288;2023-05-07T08:40:29;5.07;;;2.20;;
78207;SDS011;67481;50.244;18.288;2023-05-07T08:43:21;8.60;;;2.00;;
78207;SDS011;67481;50.244;18.288;2023-05-07T08:49:01;4.32;;;1.50;;
78207;SDS011;67481;50.244;18.288;2023-05-07T08:51:46;3.95;;;1.70;;
78207;SDS011;67481;50.244;18.288;2023-05-07T08:57:21;4.80;;;2.05;;
78207;SDS011;67481;50.244;18.288;2023-05-07T09:00:09;4.18;;;1.35;;
78207;SDS011;67481;50.244;18.288;2023-05-07T09:02:58;4.03;;;1.60;;
78207;SDS011;67481;50.244;18.288;2023-05-07T09:05:44;4.40;;;1.48;;
78207;SDS011;67481;50.244;18.288;2023-05-07T09:08:34;3.67;;;1.25;;
78207;SDS011;67481;50.244;18.288;2023-05-07T09:11:23;3.70;;;1.60;;
78207;SDS011;67481;50.244;18.288;2023-05-07T09:14:12;4.13;;;1.40;;
78207;SDS011;67481;50.244;18.288;2023-05-07T09:17:01;4.22;;;1.25;;
78207;SDS011;67481;50.244;18.288;2023-05-07T09:19:48;3.70;;;1.25;;
78207;SDS011;67481;50.244;18.288;2023-05-07T09:22:37;4.28;;;1.30;;
78207;SDS011;67481;50.244;18.288;2023-05-07T09:25:29;7.35;;;1.70;;
78207;SDS011;67481;50.244;18.288;2023-05-07T09:28:24;3.58;;;1.20;;
78207;SDS011;67481;50.244;18.288;2023-05-07T09:31:11;4.45;;;1.67;;
78207;SDS011;67481;50.244;18.288;2023-05-07T09:33:57;4.03;;;1.40;;
78207;SDS011;67481;50.244;18.288;2023-05-07T09:36:46;3.72;;;1.50;;
78207;SDS011;67481;50.244;18.288;2023-05-07T09:39:42;3.83;;;1.35;;
78207;SDS011;67481;50.244;18.288;2023-05-07T09:42:32;3.58;;;1.20;;
78207;SDS011;67481;50.244;18.288;2023-05-07T09:45:22;3.92;;;1.30;;
78207;SDS011;67481;50.244;18.288;2023-05-07T09:48:08;3.15;;;1.10;;
78207;SDS011;67481;50.244;18.288;2023-05-07T09:50:56;3.85;;;1.35;;
78207;SDS011;67481;50.244;18.288;2023-05-07T09:53:48;4.88;;;1.77;;
78207;SDS011;67481;50.244;18.288;2023-05-07T09:56:35;6.25;;;2.50;;
78207;SDS011;67481;50.244;18.288;2023-05-07T09:59:23;4.63;;;1.80;;
78207;SDS011;67481;50.244;18.288;2023-05-07T10:02:17;4.63;;;2.00;;
78207;SDS011;67481;50.244;18.288;2023-05-07T10:05:06;3.35;;;1.33;;
78207;SDS011;67481;50.244;18.288;2023-05-07T10:07:53;3.35;;;1.20;;
78207;SDS011;67481;50.244;18.288;2023-05-07T10:10:40;6.15;;;2.28;;
78207;SDS011;67481;50.244;18.288;2023-05-07T10:13:31;4.72;;;1.80;;
78207;SDS011;67481;50.244;18.288;2023-05-07T10:16:21;5.93;;;2.08;;
78207;SDS011;67481;50.244;18.288;2023-05-07T10:19:08;5.63;;;2.63;;
78207;SDS011;67481;50.244;18.288;2023-05-07T10:22:01;4.78;;;2.25;;
78207;SDS011;67481;50.244;18.288;2023-05-07T10:24:54;6.22;;;2.45;;
78207;SDS011;67481;50.244;18.288;2023-05-07T10:27:41;6.13;;;2.67;;
78207;SDS011;67481;50.244;18.288;2023-05-07T10:31:35;7.60;;;3.67;;
78207;SDS011;67481;50.244;18.288;2023-05-07T10:33:59;5.88;;;2.80;;
78207;SDS011;67481;50.244;18.288;2023-05-07T10:36:45;5.85;;;2.58;;
78207;SDS011;67481;50.244;18.288;2023-05-07T10:39:31;8.32;;;2.53;;
78207;SDS011;67481;50.244;18.288;2023-05-07T10:42:18;6.30;;;2.85;;
78207;SDS011;67481;50.244;18.288;2023-05-07T10:45:12;5.55;;;2.72;;
78207;SDS011;67481;50.244;18.288;2023-05-07T10:48:06;5.50;;;2.45;;
78207;SDS011;67481;50.244;18.288;2023-05-07T10:51:20;6.25;;;2.90;;
78207;SDS011;67481;50.244;18.288;2023-05-07T10:54:21;6.18;;;2.72;;
78207;SDS011;67481;50.244;18.288;2023-05-07T11:03:24;8.23;;;2.70;;
78207;SDS011;67481;50.244;18.288;2023-05-07T11:09:18;6.32;;;3.30;;
78207;SDS011;67481;50.244;18.288;2023-05-07T11:12:12;7.53;;;3.33;;
78207;SDS011;67481;50.244;18.288;2023-05-07T11:15:07;6.32;;;2.88;;
78207;SDS011;67481;50.244;18.288;2023-05-07T11:17:57;5.75;;;2.75;;
78207;SDS011;67481;50.244;18.288;2023-05-07T11:20:53;6.05;;;2.50;;
78207;SDS011;67481;50.244;18.288;2023-05-07T11:24:05;5.93;;;2.60;;
78207;SDS011;67481;50.244;18.288;2023-05-07T11:27:06;6.15;;;2.42;;
78207;SDS011;67481;50.244;18.288;2023-05-07T11:29:51;5.60;;;2.78;;
78207;SDS011;67481;50.244;18.288;2023-05-07T11:32:37;6.22;;;2.90;;
78207;SDS011;67481;50.244;18.288;2023-05-07T11:35:23;6.35;;;3.08;;
78207;SDS011;67481;50.244;18.288;2023-05-07T11:38:11;5.57;;;2.97;;
78207;SDS011;67481;50.244;18.288;2023-05-07T11:40:59;5.97;;;2.50;;
78207;SDS011;67481;50.244;18.288;2023-05-07T11:43:54;6.28;;;2.67;;
78207;SDS011;67481;50.244;18.288;2023-05-07T11:46:44;6.10;;;2.72;;
78207;SDS011;67481;50.244;18.288;2023-05-07T11:49:30;6.47;;;2.97;;
78207;SDS011;67481;50.244;18.288;2023-05-07T11:52:16;6.57;;;3.00;;
78207;SDS011;67481;50.244;18.288;2023-05-07T11:55:04;8.07;;;3.05;;
78207;SDS011;67481;50.244;18.288;2023-05-07T11:57:51;5.53;;;2.30;;
78207;SDS011;67481;50.244;18.288;2023-05-07T12:00:38;5.15;;;2.28;;
78207;SDS011;67481;50.244;18.288;2023-05-07T12:03:24;5.72;;;2.20;;
78207;SDS011;67481;50.244;18.288;2023-05-07T12:06:10;7.97;;;3.70;;
78207;SDS011;67481;50.244;18.288;2023-05-07T12:08:57;5.05;;;1.73;;
78207;SDS011;67481;50.244;18.288;2023-05-07T12:11:45;6.78;;;2.33;;
78207;SDS011;67481;50.244;18.288;2023-05-07T12:14:31;5.53;;;2.55;;
78207;SDS011;67481;50.244;18.288;2023-05-07T12:17:17;4.07;;;1.77;;
78207;SDS011;67481;50.244;18.288;2023-05-07T12:20:03;4.72;;;2.05;;
78207;SDS011;67481;50.244;18.288;2023-05-07T12:22:50;6.15;;;2.60;;
78207;SDS011;67481;50.244;18.288;2023-05-07T12:25:38;6.10;;;2.22;;
78207;SDS011;67481;50.244;18.288;2023-05-07T12:28:25;7.38;;;2.85;;
78207;SDS011;67481;50.244;18.288;2023-05-07T12:31:10;6.18;;;2.63;;
78207;SDS011;67481;50.244;18.288;2023-05-07T12:33:56;5.82;;;2.63;;
78207;SDS011;67481;50.244;18.288;2023-05-07T12:36:42;6.63;;;2.10;;
78207;SDS011;67481;50.244;18.288;2023-05-07T12:39:28;6.57;;;3.28;;
78207;SDS011;67481;50.244;18.288;2023-05-07T12:42:19;11.27;;;5.72;;
78207;SDS011;67481;50.244;18.288;2023-05-07T12:45:10;20.30;;;6.65;;
78207;SDS011;67481;50.244;18.288;2023-05-07T12:48:00;15.90;;;6.75;;
78207;SDS011;67481;50.244;18.288;2023-05-07T12:50:56;9.73;;;4.88;;
78207;SDS011;67481;50.244;18.288;2023-05-07T12:53:42;8.52;;;3.55;;
78207;SDS011;67481;50.244;18.288;2023-05-07T12:56:30;6.13;;;2.63;;
78207;SDS011;67481;50.244;18.288;2023-05-07T12:59:16;6.78;;;2.53;;
78207;SDS011;67481;50.244;18.288;2023-05-07T13:02:03;5.40;;;1.88;;
78207;SDS011;67481;50.244;18.288;2023-05-07T13:04:49;6.13;;;2.75;;
78207;SDS011;67481;50.244;18.288;2023-05-07T13:07:35;5.65;;;2.60;;
78207;SDS011;67481;50.244;18.288;2023-05-07T13:10:22;7.32;;;2.83;;
78207;SDS011;67481;50.244;18.288;2023-05-07T13:13:08;5.32;;;2.08;;
78207;SDS011;67481;50.244;18.288;2023-05-07T13:15:54;5.97;;;2.88;;
78207;SDS011;67481;50.244;18.288;2023-05-07T13:18:40;6.63;;;3.58;;
78207;SDS011;67481;50.244;18.288;2023-05-07T13:21:29;7.78;;;3.22;;
78207;SDS011;67481;50.244;18.288;2023-05-07T13:24:17;6.22;;;2.88;;
78207;SDS011;67481;50.244;18.288;2023-05-07T13:27:03;5.70;;;2.53;;
78207;SDS011;67481;50.244;18.288;2023-05-07T13:29:49;8.40;;;3.85;;
78207;SDS011;67481;50.244;18.288;2023-05-07T13:32:35;6.93;;;3.15;;
78207;SDS011;67481;50.244;18.288;2023-05-07T13:35:21;6.97;;;3.35;;
78207;SDS011;67481;50.244;18.288;2023-05-07T13:38:07;7.85;;;2.80;;
78207;SDS011;67481;50.244;18.288;2023-05-07T13:40:53;6.45;;;2.83;;
78207;SDS011;67481;50.244;18.288;2023-05-07T13:43:38;7.07;;;2.38;;
78207;SDS011;67481;50.244;18.288;2023-05-07T13:46:24;6.75;;;2.78;;
78207;SDS011;67481;50.244;18.288;2023-05-07T13:49:11;6.25;;;3.20;;
78207;SDS011;67481;50.244;18.288;2023-05-07T13:51:58;5.25;;;2.45;;
78207;SDS011;67481;50.244;18.288;2023-05-07T13:54:44;6.47;;;2.85;;
78207;SDS011;67481;50.244;18.288;2023-05-07T13:57:30;5.93;;;2.80;;
78207;SDS011;67481;50.244;18.288;2023-05-07T14:00:16;5.35;;;2.33;;
78207;SDS011;67481;50.244;18.288;2023-05-07T14:03:02;10.15;;;2.92;;
78207;SDS011;67481;50.244;18.288;2023-05-07T14:05:49;7.03;;;3.00;;
78207;SDS011;67481;50.244;18.288;2023-05-07T14:08:36;9.40;;;3.50;;
78207;SDS011;67481;50.244;18.288;2023-05-07T14:11:22;9.25;;;3.80;;
78207;SDS011;67481;50.244;18.288;2023-05-07T14:14:09;7.30;;;3.42;;
78207;SDS011;67481;50.244;18.288;2023-05-07T14:16:58;7.63;;;2.58;;
78207;SDS011;67481;50.244;18.288;2023-05-07T14:19:45;6.70;;;3.13;;
78207;SDS011;67481;50.244;18.288;2023-05-07T14:22:31;7.43;;;3.08;;
78207;SDS011;67481;50.244;18.288;2023-05-07T14:25:17;6.93;;;2.97;;
78207;SDS011;67481;50.244;18.288;2023-05-07T14:28:08;7.15;;;3.10;;
78207;SDS011;67481;50.244;18.288;2023-05-07T14:30:54;7.78;;;3.85;;
78207;SDS011;67481;50.244;18.288;2023-05-07T14:33:40;11.05;;;4.85;;
78207;SDS011;67481;50.244;18.288;2023-05-07T14:36:26;67.93;;;24.13;;
78207;SDS011;67481;50.244;18.288;2023-05-07T14:39:12;14.30;;;8.80;;
78207;SDS011;67481;50.244;18.288;2023-05-07T14:42:00;12.32;;;7.95;;
78207;SDS011;67481;50.244;18.288;2023-05-07T14:45:10;9.68;;;4.82;;
78207;SDS011;67481;50.244;18.288;2023-05-07T14:47:56;7.03;;;3.47;;
78207;SDS011;67481;50.244;18.288;2023-05-07T14:50:42;6.53;;;2.83;;
78207;SDS011;67481;50.244;18.288;2023-05-07T14:53:27;8.32;;;3.47;;
78207;SDS011;67481;50.244;18.288;2023-05-07T14:56:13;7.20;;;2.30;;
78207;SDS011;67481;50.244;18.288;2023-05-07T14:59:00;7.00;;;2.95;;
78207;SDS011;67481;50.244;18.288;2023-05-07T15:01:45;7.57;;;2.90;;
78207;SDS011;67481;50.244;18.288;2023-05-07T15:04:30;5.28;;;1.98;;
78207;SDS011;67481;50.244;18.288;2023-05-07T15:07:16;5.53;;;2.22;;
78207;SDS011;67481;50.244;18.288;2023-05-07T15:10:03;7.10;;;2.47;;
78207;SDS011;67481;50.244;18.288;2023-05-07T15:12:50;6.25;;;2.55;;
78207;SDS011;67481;50.244;18.288;2023-05-07T15:15:36;6.43;;;2.70;;
78207;SDS011;67481;50.244;18.288;2023-05-07T15:18:23;5.53;;;2.38;;
78207;SDS011;67481;50.244;18.288;2023-05-07T15:21:09;9.93;;;3.08;;
78207;SDS011;67481;50.244;18.288;2023-05-07T15:23:58;6.40;;;2.53;;
78207;SDS011;67481;50.244;18.288;2023-05-07T15:26:43;6.93;;;3.17;;
78207;SDS011;67481;50.244;18.288;2023-05-07T15:29:28;5.72;;;2.30;;
78207;SDS011;67481;50.244;18.288;2023-05-07T15:32:16;7.20;;;2.88;;
78207;SDS011;67481;50.244;18.288;2023-05-07T15:35:02;6.13;;;2.50;;
78207;SDS011;67481;50.244;18.288;2023-05-07T15:37:49;6.25;;;2.50;;
78207;SDS011;67481;50.244;18.288;2023-05-07T15:40:34;7.47;;;3.58;;
78207;SDS011;67481;50.244;18.288;2023-05-07T15:43:22;7.65;;;4.03;;
78207;SDS011;67481;50.244;18.288;2023-05-07T15:46:08;10.48;;;3.63;;
78207;SDS011;67481;50.244;18.288;2023-05-07T15:48:53;8.95;;;4.10;;
78207;SDS011;67481;50.244;18.288;2023-05-07T15:51:39;10.80;;;5.40;;
78207;SDS011;67481;50.244;18.288;2023-05-07T15:54:24;26.45;;;4.10;;
78207;SDS011;67481;50.244;18.288;2023-05-07T15:57:10;8.23;;;4.10;;
78207;SDS011;67481;50.244;18.288;2023-05-07T16:00:03;11.50;;;4.60;;
78207;SDS011;67481;50.244;18.288;2023-05-07T16:02:59;8.70;;;3.83;;
78207;SDS011;67481;50.244;18.288;2023-05-07T16:05:45;8.07;;;4.38;;
78207;SDS011;67481;50.244;18.288;2023-05-07T16:08:30;7.50;;;3.13;;
78207;SDS011;67481;50.244;18.288;2023-05-07T16:11:18;8.32;;;3.15;;
78207;SDS011;67481;50.244;18.288;2023-05-07T16:14:04;9.02;;;4.20;;
78207;SDS011;67481;50.244;18.288;2023-05-07T16:16:49;8.20;;;3.45;;
78207;SDS011;67481;50.244;18.288;2023-05-07T16:19:37;10.82;;;3.60;;
78207;SDS011;67481;50.244;18.288;2023-05-07T16:22:22;12.23;;;4.35;;
78207;SDS011;67481;50.244;18.288;2023-05-07T16:25:09;7.65;;;2.38;;
78207;SDS011;67481;50.244;18.288;2023-05-07T16:27:55;7.32;;;3.55;;
78207;SDS011;67481;50.244;18.288;2023-05-07T16:30:41;6.53;;;2.92;;
78207;SDS011;67481;50.244;18.288;2023-05-07T16:33:27;8.95;;;3.70;;
78207;SDS011;67481;50.244;18.288;2023-05-07T16:36:12;8.25;;;3.45;;
78207;SDS011;67481;50.244;18.288;2023-05-07T16:38:58;9.13;;;4.15;;
78207;SDS011;67481;50.244;18.288;2023-05-07T16:41:44;7.72;;;2.88;;
78207;SDS011;67481;50.244;18.288;2023-05-07T16:44:36;7.05;;;3.33;;
78207;SDS011;67481;50.244;18.288;2023-05-07T16:47:21;9.60;;;4.90;;
78207;SDS011;67481;50.244;18.288;2023-05-07T16:50:21;12.35;;;5.10;;
78207;SDS011;67481;50.244;18.288;2023-05-07T16:53:07;9.82;;;4.15;;
78207;SDS011;67481;50.244;18.288;2023-05-07T16:55:53;8.20;;;3.53;;
78207;SDS011;67481;50.244;18.288;2023-05-07T16:58:41;9.35;;;4.47;;
78207;SDS011;67481;50.244;18.288;2023-05-07T17:01:26;8.95;;;4.78;;